Time;durP1;ratioP1;P1;durP2;ratioP2;P2;SDS_P1;SDS_P2;PMS_P1;PMS_P2;Temp;Humidity;BMP_temperature;BMP_pressure;BME280_temperature;BME280_humidity;BME280_pressure;Samples;Min_cycle;Max_cycle;Signal;HPM_P1;HPM_P2
2022/10/18 00:01:24;;;;;;;23.15;11.85;;;;;;;14.75;100.00;102518.84;5223997;28;20096;-72
2022/10/18 00:03:55;;;;;;;23.90;12.57;;;;;;;14.74;100.00;102520.69;5224799;28;20052;-72
2022/10/18 00:06:25;;;;;;;21.17;11.98;;;;;;;14.72;100.00;102522.72;5225039;28;20078;-72
2022/10/18 00:08:56;;;;;;;25.33;12.73;;;;;;;14.70;100.00;102521.16;5224196;28;20479;-71
2022/10/18 00:11:26;;;;;;;27.00;12.25;;;;;;;14.69;100.00;102525.72;5224328;28;20016;-73
2022/10/18 00:13:57;;;;;;;21.17;10.98;;;;;;;14.67;100.00;102524.19;5223805;28;20040;-72
2022/10/18 00:16:27;;;;;;;25.10;12.55;;;;;;;14.66;100.00;102522.44;5224100;28;20399;-72
2022/10/18 00:18:58;;;;;;;24.23;12.82;;;;;;;14.66;100.00;102522.44;5223544;28;20053;-71
2022/10/18 00:21:28;;;;;;;25.15;12.80;;;;;;;14.66;100.00;102534.13;5224451;28;20021;-72
2022/10/18 00:23:59;;;;;;;22.75;12.48;;;;;;;14.65;100.00;102537.81;5224067;28;20431;-72
2022/10/18 00:26:30;;;;;;;25.67;13.15;;;;;;;14.63;100.00;102539.81;5223440;28;20074;-72
2022/10/18 00:29:04;;;;;;;21.92;12.80;;;;;;;14.63;100.00;102529.03;5223382;28;20036;-72
2022/10/18 00:31:36;;;;;;;23.30;12.30;;;;;;;14.66;100.00;102542.25;5223617;28;20102;-72
2022/10/18 00:34:11;;;;;;;22.23;12.00;;;;;;;14.69;100.00;102539.22;5224000;28;20035;-72
2022/10/18 00:36:42;;;;;;;22.80;12.33;;;;;;;14.74;100.00;102533.34;5223729;28;20398;-72
2022/10/18 00:39:18;;;;;;;24.80;11.82;;;;;;;14.78;100.00;102545.56;5223390;28;20275;-72
2022/10/18 00:41:49;;;;;;;19.85;11.73;;;;;;;14.83;100.00;102537.84;5223868;28;20475;-71
2022/10/18 00:44:19;;;;;;;25.30;12.75;;;;;;;14.84;100.00;102531.44;5223901;28;20048;-72
2022/10/18 00:46:53;;;;;;;26.00;14.23;;;;;;;14.81;100.00;102531.75;5223190;28;20485;-72
2022/10/18 00:49:31;;;;;;;24.60;13.27;;;;;;;14.80;100.00;102531.88;5223807;28;20027;-72
2022/10/18 00:52:05;;;;;;;24.83;12.93;;;;;;;14.79;100.00;102527.50;5223763;28;20104;-72
2022/10/18 00:54:40;;;;;;;27.02;13.70;;;;;;;14.77;100.00;102530.38;5224254;28;20055;-72
2022/10/18 00:57:12;;;;;;;24.67;13.48;;;;;;;14.75;100.00;102535.06;5210472;28;20024;-71
2022/10/18 00:59:44;;;;;;;18.52;11.23;;;;;;;14.75;100.00;102532.34;5223177;28;20021;-72
2022/10/18 01:02:17;;;;;;;28.27;13.38;;;;;;;14.74;100.00;102538.75;5223279;28;20075;-72
2022/10/18 01:04:48;;;;;;;25.67;13.45;;;;;;;14.74;100.00;102536.06;5223841;28;20052;-72
2022/10/18 01:07:24;;;;;;;24.75;13.80;;;;;;;14.73;100.00;102529.81;5223316;28;20033;-72
2022/10/18 01:10:22;;;;;;;24.35;13.10;;;;;;;14.73;100.00;102531.66;5223583;28;20120;-71
2022/10/18 01:13:31;;;;;;;26.23;12.18;;;;;;;14.71;100.00;102539.94;5223997;28;20112;-72
2022/10/18 01:16:40;;;;;;;20.50;11.90;;;;;;;14.69;100.00;102541.91;5223473;28;20517;-72
2022/10/18 01:19:24;;;;;;;24.92;13.32;;;;;;;14.66;100.00;102528.72;5223526;28;20029;-72
2022/10/18 01:22:04;;;;;;;21.02;12.65;;;;;;;14.64;100.00;102524.47;5223902;28;20025;-72
2022/10/18 01:24:54;;;;;;;27.00;11.95;;;;;;;14.62;100.00;102537.28;5223538;28;20025;-72
2022/10/18 01:27:44;;;;;;;26.10;12.90;;;;;;;14.59;100.00;102541.13;5223254;28;20497;-72
2022/10/18 01:30:44;;;;;;;33.53;14.32;;;;;;;14.58;100.00;102547.53;5223276;28;20025;-70
2022/10/18 01:33:20;;;;;;;21.95;12.38;;;;;;;14.58;100.00;102542.13;5223204;28;20025;-72
2022/10/18 01:35:54;;;;;;;;;;;;;;;14.56;100.00;102543.28;5223918;28;20029;-72
2022/10/18 01:38:26;;;;;;;28.17;12.85;;;;;;;14.54;100.00;102537.19;5222860;28;19915;-72
2022/10/18 01:40:58;;;;;;;23.50;12.25;;;;;;;14.53;100.00;102538.19;5223595;28;20029;-72
2022/10/18 01:43:31;;;;;;;18.23;11.07;;;;;;;14.53;100.00;102540.88;5222925;28;20048;-72
2022/10/18 01:46:03;;;;;;;17.75;11.35;;;;;;;14.52;100.00;102533.78;5223578;28;20100;-72
2022/10/18 01:48:36;;;;;;;18.85;10.82;;;;;;;14.52;100.00;102544.59;5222981;28;20025;-72
2022/10/18 01:51:07;;;;;;;23.92;12.63;;;;;;;14.49;100.00;102543.03;5223372;28;20489;-72
2022/10/18 01:53:42;;;;;;;;;;;;;;;14.51;100.00;102538.34;5223865;28;20044;-71
2022/10/18 01:56:23;;;;;;;24.63;13.68;;;;;;;14.53;100.00;102540.88;5223141;28;19940;-72
2022/10/18 01:59:09;;;;;;;20.63;12.27;;;;;;;14.54;100.00;102545.28;5222677;28;20079;-71
2022/10/18 02:02:32;;;;;;;18.20;11.45;;;;;;;14.53;100.00;102543.59;5223232;28;20036;-72
2022/10/18 02:05:37;;;;;;;25.58;13.05;;;;;;;14.53;100.00;102549.00;5204159;28;20477;-72
2022/10/18 02:08:20;;;;;;;21.38;13.32;;;;;;;14.52;100.00;102540.03;5222486;28;20126;-72
2022/10/18 02:11:01;;;;;;;27.73;14.37;;;;;;;14.53;100.00;102546.28;5223045;28;20020;-71
2022/10/18 02:13:41;;;;;;;27.92;14.48;;;;;;;14.52;100.00;102544.59;5258399;28;20070;-72
2022/10/18 02:16:24;;;;;;;25.98;14.38;;;;;;;14.50;100.00;102544.72;5226849;28;20106;-72
2022/10/18 02:18:59;;;;;;;22.67;12.60;;;;;;;14.46;100.00;102540.63;5224823;28;20020;-72
2022/10/18 02:21:31;;;;;;;22.75;13.18;;;;;;;14.46;100.00;102556.81;5213638;28;20025;-72
2022/10/18 02:24:04;;;;;;;28.05;13.43;;;;;;;14.44;100.00;102543.44;5226821;28;20697;-72
2022/10/18 02:26:34;;;;;;;21.98;12.80;;;;;;;14.43;100.00;102549.00;5226467;28;20032;-71
2022/10/18 02:29:06;;;;;;;21.05;11.85;;;;;;;14.41;100.00;102548.31;5226297;28;20025;-72
2022/10/18 02:31:43;;;;;;;24.90;12.32;;;;;;;14.39;100.00;102544.91;5226520;28;20155;-72
2022/10/18 02:34:40;;;;;;;24.73;12.68;;;;;;;14.37;100.00;102555.03;5226667;28;20067;-70
2022/10/18 02:37:12;;;;;;;24.73;13.13;;;;;;;14.35;100.00;102557.84;5225834;28;20070;-71
2022/10/18 02:39:47;;;;;;;23.55;12.82;;;;;;;14.38;100.00;102554.88;5226342;28;20386;-72
2022/10/18 02:42:17;;;;;;;22.13;11.35;;;;;;;14.38;100.00;102557.56;5226341;28;20017;-72
2022/10/18 02:44:47;;;;;;;23.52;11.90;;;;;;;14.37;100.00;102550.47;5226661;28;20025;-72
2022/10/18 02:47:18;;;;;;;25.38;12.85;;;;;;;14.37;100.00;102546.91;5225665;28;20029;-72
2022/10/18 02:49:48;;;;;;;21.08;11.93;;;;;;;14.36;100.00;102550.63;5226106;28;20048;-72
2022/10/18 02:52:19;;;;;;;21.42;12.68;;;;;;;14.34;100.00;102548.06;5226145;28;20772;-72
2022/10/18 02:54:49;;;;;;;24.02;13.00;;;;;;;14.34;100.00;102549.91;5226407;28;20028;-72
2022/10/18 02:57:20;;;;;;;20.95;11.63;;;;;;;14.33;100.00;102556.31;5225908;28;20142;-71
2022/10/18 02:59:50;;;;;;;32.17;14.13;;;;;;;14.36;100.00;102558.72;5224647;28;20112;-72
2022/10/18 03:02:21;;;;;;;19.83;12.65;;;;;;;14.38;100.00;102567.50;5225363;28;20017;-72
2022/10/18 03:04:51;;;;;;;23.60;13.98;;;;;;;14.39;100.00;102569.22;5225487;28;20040;-72
2022/10/18 03:07:22;;;;;;;27.88;13.90;;;;;;;14.39;100.00;102569.22;5225275;28;20070;-72
2022/10/18 03:09:52;;;;;;;22.40;12.82;;;;;;;14.39;100.00;102570.06;5225742;28;20046;-72
2022/10/18 03:12:23;;;;;;;23.33;13.50;;;;;;;14.38;100.00;102562.97;5225831;28;20115;-72
2022/10/18 03:14:53;;;;;;;23.65;13.82;;;;;;;14.38;100.00;102562.13;5225630;28;20120;-72
2022/10/18 03:17:24;;;;;;;24.52;13.13;;;;;;;14.37;100.00;102563.13;5224569;28;20100;-72
2022/10/18 03:19:54;;;;;;;23.00;13.35;;;;;;;14.35;100.00;102555.16;5225848;28;20394;-72
2022/10/18 03:22:26;;;;;;;25.08;12.38;;;;;;;14.34;100.00;102560.72;5225616;28;20471;-71
2022/10/18 03:24:57;;;;;;;17.77;11.82;;;;;;;14.35;100.00;102565.94;5224589;28;20021;-72
2022/10/18 03:27:27;;;;;;;23.13;12.55;;;;;;;14.33;100.00;102564.41;5224517;28;20021;-72
2022/10/18 03:29:58;;;;;;;18.27;11.60;;;;;;;14.31;100.00;102561.00;5225213;28;20031;-72
2022/10/18 03:32:29;;;;;;;25.05;12.32;;;;;;;14.28;100.00;102556.75;5224731;28;20017;-71
2022/10/18 03:34:59;;;;;;;30.75;14.05;;;;;;;14.27;100.00;102559.63;5225446;28;20021;-72
2022/10/18 03:37:29;;;;;;;23.55;13.48;;;;;;;14.26;100.00;102564.16;5224562;28;20521;-72
2022/10/18 03:40:00;;;;;;;28.92;17.10;;;;;;;14.26;100.00;102566.88;5224992;28;20108;-72
2022/10/18 03:42:31;;;;;;;31.98;14.95;;;;;;;14.28;100.00;102567.56;5224977;28;20025;-72
2022/10/18 03:45:01;;;;;;;26.30;14.70;;;;;;;14.28;100.00;102570.25;5224979;28;20021;-71
2022/10/18 03:47:32;;;;;;;27.23;16.02;;;;;;;14.29;100.00;102571.09;5224482;28;20025;-72
2022/10/18 03:50:03;;;;;;;24.55;14.32;;;;;;;14.30;100.00;102564.69;5224905;28;20037;-72
2022/10/18 03:52:33;;;;;;;27.30;14.73;;;;;;;14.28;100.00;102574.81;5224700;28;20017;-71
2022/10/18 03:55:04;;;;;;;27.67;14.77;;;;;;;14.27;100.00;102581.22;5224725;28;20037;-72
2022/10/18 03:57:35;;;;;;;26.15;14.45;;;;;;;14.27;100.00;102573.97;5224388;28;20025;-71
2022/10/18 04:00:06;;;;;;;29.42;15.98;;;;;;;14.29;100.00;102573.81;5224634;28;20059;-72
2022/10/18 04:02:36;;;;;;;33.28;15.30;;;;;;;14.28;100.00;102564.84;5224853;28;20387;-72
2022/10/18 04:05:08;;;;;;;30.83;13.98;;;;;;;14.25;100.00;102567.84;5224553;28;20028;-72
2022/10/18 04:07:38;;;;;;;29.45;14.27;;;;;;;14.23;100.00;102575.25;5223787;28;20074;-72
2022/10/18 04:10:09;;;;;;;30.88;16.00;;;;;;;14.28;100.00;102570.25;5224511;28;20029;-72
2022/10/18 04:12:39;;;;;;;26.85;15.13;;;;;;;14.30;100.00;102575.50;5224448;28;20035;-71
2022/10/18 04:15:10;;;;;;;37.65;16.48;;;;;;;14.30;100.00;102583.59;5224479;28;20074;-71
2022/10/18 04:17:41;;;;;;;34.75;17.50;;;;;;;14.30;100.00;102591.69;5223233;28;20032;-71
2022/10/18 04:20:12;;;;;;;35.85;17.67;;;;;;;14.31;100.00;102588.88;5224562;28;20017;-72
2022/10/18 04:22:42;;;;;;;30.13;15.23;;;;;;;14.32;100.00;102589.72;5224255;28;20018;-71
2022/10/18 04:25:13;;;;;;;32.35;16.50;;;;;;;14.29;100.00;102592.69;5224686;28;20497;-71
2022/10/18 04:27:43;;;;;;;31.88;16.38;;;;;;;14.27;100.00;102590.16;5223321;28;20108;-71
2022/10/18 04:30:14;;;;;;;39.00;17.67;;;;;;;14.26;100.00;102588.47;5223749;28;20035;-71
2022/10/18 04:32:44;;;;;;;36.63;17.02;;;;;;;14.27;100.00;102590.16;5223752;28;20021;-71
2022/10/18 04:35:15;;;;;;;30.65;15.48;;;;;;;14.27;100.00;102595.56;5223853;28;20086;-71
2022/10/18 04:37:45;;;;;;;33.42;16.75;;;;;;;14.28;100.00;102599.09;5223378;28;20025;-71
2022/10/18 04:40:16;;;;;;;31.92;17.80;;;;;;;14.29;100.00;102596.25;5223746;28;20052;-71
2022/10/18 04:42:46;;;;;;;30.75;14.60;;;;;;;14.32;100.00;102595.13;5223601;28;20769;-71
2022/10/18 04:45:17;;;;;;;39.75;18.73;;;;;;;14.34;100.00;102593.94;5224151;28;20055;-71
2022/10/18 04:47:47;;;;;;;36.17;18.63;;;;;;;14.35;100.00;102592.94;5223193;28;20032;-71
2022/10/18 04:50:17;;;;;;;32.10;16.52;;;;;;;14.32;100.00;102600.50;5223965;28;20028;-71
2022/10/18 04:52:48;;;;;;;39.92;18.05;;;;;;;14.31;100.00;102598.78;5223790;28;20123;-72
2022/10/18 04:55:19;;;;;;;41.25;20.42;;;;;;;14.31;100.00;102598.78;5223154;28;20056;-72
2022/10/18 04:57:49;;;;;;;33.60;17.13;;;;;;;14.31;100.00;102604.19;5223072;28;20094;-71
2022/10/18 05:00:20;;;;;;;34.53;18.10;;;;;;;14.34;100.00;102612.00;5223871;28;20027;-72
2022/10/18 05:02:57;;;;;;;37.17;19.60;;;;;;;14.32;100.00;102609.47;5223454;28;20131;-72
2022/10/18 05:05:28;;;;;;;48.25;22.25;;;;;;;14.33;100.00;102613.84;5223864;28;20017;-71
2022/10/18 05:07:58;;;;;;;46.95;21.60;;;;;;;14.32;100.00;102604.06;5222668;28;20035;-72
2022/10/18 05:10:29;;;;;;;51.70;22.92;;;;;;;14.34;100.00;102604.75;5223876;28;20013;-72
2022/10/18 05:12:59;;;;;;;42.25;20.10;;;;;;;14.32;100.00;102609.47;5223635;28;20457;-71
2022/10/18 05:15:30;;;;;;;31.35;16.85;;;;;;;14.32;100.00;102612.16;5223619;28;20114;-72
2022/10/18 05:18:00;;;;;;;44.15;21.50;;;;;;;14.34;100.00;102612.00;5222717;28;20163;-73
2022/10/18 05:20:31;;;;;;;46.35;20.88;;;;;;;14.35;100.00;102611.00;5223459;28;20615;-72
2022/10/18 05:23:01;;;;;;;40.75;19.55;;;;;;;14.32;100.00;102611.31;5223498;28;20025;-71
2022/10/18 05:25:31;;;;;;;44.72;20.15;;;;;;;14.25;100.00;102600.22;5223241;28;20453;-71
2022/10/18 05:28:02;;;;;;;44.88;20.50;;;;;;;14.20;100.00;102602.53;5222761;28;20120;-72
2022/10/18 05:30:33;;;;;;;37.88;19.35;;;;;;;14.14;100.00;102603.13;5221687;28;20017;-72
2022/10/18 05:33:04;;;;;;;74.15;19.58;;;;;;;14.07;100.00;102599.31;5223176;28;20036;-72
2022/10/18 05:35:35;;;;;;;35.92;18.38;;;;;;;14.01;100.00;102598.06;5255808;28;20081;-71
2022/10/18 05:38:05;;;;;;;38.92;19.25;;;;;;;13.96;100.00;102601.19;5222550;28;20362;-72
2022/10/18 05:40:39;;;;;;;40.78;17.38;;;;;;;13.91;100.00;102602.63;5223183;28;20025;-71
2022/10/18 05:43:09;;;;;;;42.78;22.13;;;;;;;13.88;100.00;102606.47;5222839;28;20029;-72
2022/10/18 05:45:46;;;;;;;33.78;18.75;;;;;;;13.85;100.00;102595.09;5223202;28;20043;-71
2022/10/18 05:48:17;;;;;;;41.80;18.92;;;;;;;13.81;100.00;102585.63;5225369;28;20025;-72
2022/10/18 05:50:47;;;;;;;33.97;16.63;;;;;;;13.75;100.00;102592.41;5227364;28;20017;-71
2022/10/18 05:53:18;;;;;;;117.85;17.85;;;;;;;13.72;100.00;102588.19;5227271;28;20047;-72
2022/10/18 05:55:48;;;;;;;80.50;19.23;;;;;;;13.66;100.00;102596.00;5227010;28;20099;-71
2022/10/18 05:58:19;;;;;;;34.72;17.52;;;;;;;13.62;100.00;102590.03;5226432;28;20111;-71
2022/10/18 06:00:50;;;;;;;27.75;15.80;;;;;;;13.60;100.00;102605.50;5227256;28;20020;-71
2022/10/18 06:03:21;;;;;;;34.83;18.33;;;;;;;13.63;100.00;102607.06;5226832;28;20017;-71
2022/10/18 06:05:51;;;;;;;38.58;17.73;;;;;;;13.63;100.00;102609.75;5227001;28;20550;-72
2022/10/18 06:08:22;;;;;;;50.22;24.25;;;;;;;13.61;100.00;102609.06;5226081;28;20461;-72
2022/10/18 06:10:52;;;;;;;40.45;18.05;;;;;;;13.61;100.00;102606.38;5226785;28;20046;-72
2022/10/18 06:13:23;;;;;;;34.58;17.42;;;;;;;13.61;100.00;102604.53;5226824;28;20143;-71
2022/10/18 06:15:56;;;;;;;30.50;17.10;;;;;;;13.58;100.00;102602.09;5226638;28;20029;-71
2022/10/18 06:18:28;;;;;;;35.72;18.15;;;;;;;13.58;100.00;102607.50;5225767;28;20028;-70
2022/10/18 06:20:59;;;;;;;35.33;18.45;;;;;;;13.56;100.00;102611.34;5226681;28;20029;-72
2022/10/18 06:23:29;;;;;;;38.95;20.75;;;;;;;13.57;100.00;102616.59;5226616;28;20086;-71
2022/10/18 06:26:01;;;;;;;39.70;19.75;;;;;;;13.58;100.00;102617.44;5226633;28;20433;-72
2022/10/18 06:28:35;;;;;;;45.88;22.52;;;;;;;13.58;100.00;102620.97;5224248;28;20025;-72
2022/10/18 06:31:06;;;;;;;42.08;22.48;;;;;;;13.57;100.00;102626.53;5225364;28;20021;-73
2022/10/18 06:33:37;;;;;;;51.00;23.88;;;;;;;13.56;100.00;102625.69;5226421;28;20473;-73
2022/10/18 06:36:12;;;;;;;51.67;23.75;;;;;;;13.58;100.00;102626.38;5226472;28;20082;-71
2022/10/18 06:38:42;;;;;;;;;;;;;;;13.60;100.00;102631.63;5226002;28;20490;-72
2022/10/18 06:41:13;;;;;;;73.68;21.00;;;;;;;13.60;100.00;102639.69;5226336;28;19915;-72
2022/10/18 06:43:48;;;;;;;30.48;17.73;;;;;;;13.58;100.00;102645.25;5225810;28;20130;-72
2022/10/18 06:46:19;;;;;;;32.80;17.48;;;;;;;13.58;100.00;102650.63;5226375;28;20025;-73
2022/10/18 06:48:49;;;;;;;36.42;18.95;;;;;;;13.60;100.00;102653.19;5225282;28;20020;-73
2022/10/18 06:51:19;;;;;;;36.90;19.08;;;;;;;13.61;100.00;102653.06;5226111;28;20060;-71
2022/10/18 06:53:50;;;;;;;31.25;17.58;;;;;;;13.60;100.00;102662.13;5225691;28;20056;-73
2022/10/18 06:56:20;;;;;;;96.95;19.30;;;;;;;13.61;100.00;102654.91;5225822;28;20033;-72
2022/10/18 06:58:51;;;;;;;229.23;25.95;;;;;;;13.62;100.00;102659.31;5225037;28;20020;-73
2022/10/18 07:01:21;;;;;;;44.60;20.40;;;;;;;13.62;100.00;102667.41;5225628;28;20108;-72
2022/10/18 07:03:53;;;;;;;43.42;19.58;;;;;;;13.62;100.00;102667.41;5225986;28;20017;-71
2022/10/18 07:06:24;;;;;;;37.92;19.60;;;;;;;13.65;100.00;102667.94;5225435;28;20036;-71
2022/10/18 07:08:55;;;;;;;38.25;20.33;;;;;;;13.70;100.00;102678.31;5225207;28;20025;-72
2022/10/18 07:11:26;;;;;;;34.35;19.17;;;;;;;13.75;100.00;102678.72;5225674;28;20027;-73
2022/10/18 07:14:03;;;;;;;36.85;20.00;;;;;;;13.80;100.00;102686.41;5225978;28;20033;-72
2022/10/18 07:16:33;;;;;;;43.05;22.20;;;;;;;13.84;100.00;102683.28;5223980;28;20025;-72
2022/10/18 07:19:04;;;;;;;36.78;17.63;;;;;;;13.89;100.00;102696.34;5224720;28;20024;-72
2022/10/18 07:21:35;;;;;;;24.02;15.55;;;;;;;13.92;100.00;102694.22;5225525;28;20021;-72
2022/10/18 07:24:05;;;;;;;32.35;16.02;;;;;;;13.99;100.00;102695.31;5225280;28;20072;-73
2022/10/18 07:26:36;;;;;;;32.13;17.48;;;;;;;14.05;100.00;102698.44;5225338;28;20063;-71
2022/10/18 07:29:09;;;;;;;30.52;18.55;;;;;;;14.11;100.00;102697.91;5224833;28;20028;-73
2022/10/18 07:31:39;;;;;;;39.63;17.27;;;;;;;14.17;100.00;102695.47;5224838;28;20059;-72
2022/10/18 07:34:12;;;;;;;28.92;14.55;;;;;;;14.22;100.00;102708.53;5225092;28;20053;-72
2022/10/18 07:36:42;;;;;;;32.08;16.70;;;;;;;14.28;100.00;102707.94;5223798;28;20021;-72
2022/10/18 07:39:13;;;;;;;37.45;17.05;;;;;;;14.37;100.00;102712.47;5224938;28;20035;-72
2022/10/18 07:41:43;;;;;;;29.73;16.88;;;;;;;14.49;100.00;102710.47;5225065;28;20028;-72
2022/10/18 07:44:13;;;;;;;33.53;18.40;;;;;;;14.76;100.00;102717.78;5224841;28;20033;-71
2022/10/18 07:46:44;;;;;;;25.52;14.10;;;;;;;15.10;100.00;102723.44;5224666;28;20509;-72
2022/10/18 07:49:14;;;;;;;26.60;13.93;;;;;;;15.68;100.00;102716.84;5223547;28;20364;-72
2022/10/18 07:51:45;;;;;;;24.63;13.07;;;;;;;16.40;100.00;102720.28;5224765;28;20029;-72
2022/10/18 07:54:15;;;;;;;26.40;13.90;;;;;;;17.00;100.00;102725.72;5224563;28;20055;-72
2022/10/18 07:56:46;;;;;;;24.23;13.10;;;;;;;17.81;100.00;102731.38;5224537;28;20032;-72
2022/10/18 07:59:16;;;;;;;21.40;11.98;;;;;;;18.08;100.00;102729.38;5224356;28;20037;-72
2022/10/18 08:01:46;;;;;;;20.23;10.60;;;;;;;18.00;100.00;102730.22;5224741;28;20725;-72
2022/10/18 08:04:17;;;;;;;19.98;10.50;;;;;;;18.19;100.00;102739.88;5224694;28;20072;-72
2022/10/18 08:06:47;;;;;;;19.00;11.25;;;;;;;18.47;100.00;102732.19;5223925;28;20078;-71
2022/10/18 08:09:18;;;;;;;22.98;10.32;;;;;;;18.80;100.00;102724.84;5224387;28;20031;-74
2022/10/18 08:11:48;;;;;;;25.45;8.77;;;;;;;19.77;100.00;102721.78;5224245;28;20061;-73
2022/10/18 08:14:19;;;;;;;19.50;9.30;;;;;;;19.80;100.00;102735.06;5224253;28;20040;-73
2022/10/18 08:16:49;;;;;;;25.70;10.32;;;;;;;19.87;100.00;102741.47;5223909;28;20482;-73
2022/10/18 08:19:20;;;;;;;27.63;10.55;;;;;;;19.99;100.00;102752.78;5223770;28;20060;-74
2022/10/18 08:21:50;;;;;;;20.63;9.40;;;;;;;20.37;100.00;102750.91;5224837;28;20040;-74
2022/10/18 08:24:20;;;;;;;20.73;10.90;;;;;;;20.57;100.00;102751.25;5224216;28;20029;-72
2022/10/18 08:26:51;;;;;;;23.05;10.98;;;;;;;20.64;100.00;102749.50;5223714;28;20033;-73
2022/10/18 08:29:21;;;;;;;27.50;10.50;;;;;;;20.49;100.00;102757.66;5223982;28;20021;-73
2022/10/18 08:31:52;;;;;;;25.73;9.30;;;;;;;20.80;100.00;102759.38;5223201;28;20048;-72
2022/10/18 08:34:22;;;;;;;18.20;7.78;;;;;;;21.16;100.00;102762.16;5224097;28;20083;-71
2022/10/18 08:36:53;;;;;;;19.48;8.20;;;;;;;21.15;100.00;102771.41;5223396;28;20028;-73
2022/10/18 08:39:23;;;;;;;16.00;7.63;;;;;;;21.40;100.00;102761.03;5224176;28;20378;-73
2022/10/18 08:42:08;;;;;;;19.42;8.70;;;;;;;21.30;100.00;102766.78;5223790;28;20021;-73
2022/10/18 08:44:50;;;;;;;21.67;8.48;;;;;;;21.07;100.00;102768.75;5224100;28;20074;-72
2022/10/18 08:47:28;;;;;;;18.90;8.75;;;;;;;21.30;100.00;102771.38;5210287;28;20021;-72
2022/10/18 08:50:22;;;;;;;23.48;8.68;;;;;;;21.62;100.00;102775.56;5223876;28;20068;-72
2022/10/18 08:52:55;;;;;;;23.70;8.88;;;;;;;21.96;100.00;102777.59;5223588;28;20031;-73
2022/10/18 08:55:29;;;;;;;29.38;8.77;;;;;;;22.19;100.00;102774.72;5224107;28;20044;-73
2022/10/18 08:58:00;;;;;;;19.90;7.97;;;;;;;22.46;100.00;102773.03;5222984;28;20032;-73
2022/10/18 09:00:37;;;;;;;24.23;9.25;;;;;;;22.60;100.00;102777.56;5223999;28;20494;-73
2022/10/18 09:03:40;;;;;;;21.92;8.73;;;;;;;22.54;100.00;102778.34;5224008;28;20017;-73
2022/10/18 09:06:52;;;;;;;28.05;9.02;;;;;;;22.90;100.00;102771.88;5223870;28;20048;-73
2022/10/18 09:09:49;;;;;;;30.63;9.70;;;;;;;23.21;100.00;102785.09;5220439;28;20029;-73
2022/10/18 09:12:33;;;;;;;18.65;8.70;;;;;;;23.42;100.00;102768.53;5222564;28;20033;-73
2022/10/18 09:15:32;;;;;;;25.75;7.40;;;;;;;23.46;100.00;102783.50;5224611;28;20033;-73
2022/10/18 09:18:38;;;;;;;23.35;8.50;;;;;;;23.44;100.00;102791.06;5222656;28;20676;-72
2022/10/18 09:21:18;;;;;;;29.67;8.13;;;;;;;22.65;100.00;102793.38;5223593;28;20029;-73
2022/10/18 09:24:01;;;;;;;28.67;8.85;;;;;;;21.92;100.00;102785.34;5226813;28;20032;-73
2022/10/18 09:26:42;;;;;;;23.02;8.07;;;;;;;22.15;100.00;102787.91;5227797;28;20021;-72
2022/10/18 09:29:21;;;;;;;20.00;6.38;;;;;;;22.12;100.00;102791.03;5227062;28;20025;-72
2022/10/18 09:32:07;;;;;;;21.83;6.97;;;;;;;21.81;100.00;102795.94;5227165;28;20013;-71
2022/10/18 09:34:50;;;;;;;;;;;;;;;21.35;100.00;102791.63;5227937;28;20033;-73
2022/10/18 09:37:23;;;;;;;29.80;8.68;;;;;;;21.51;100.00;102782.38;5227031;28;20352;-73
2022/10/18 09:40:02;;;;;;;29.33;9.23;;;;;;;21.82;100.00;102784.81;5227885;28;20024;-71
2022/10/18 09:42:41;;;;;;;22.92;9.00;;;;;;;21.91;100.00;102786.38;5214845;28;20442;-72
2022/10/18 09:45:38;;;;;;;27.25;8.02;;;;;;;21.94;100.00;102804.28;5227340;28;20086;-72
2022/10/18 09:48:27;;;;;;;32.92;8.10;;;;;;;21.88;100.00;102794.13;5226572;28;20029;-73
2022/10/18 09:51:07;;;;;;;20.55;6.20;;;;;;;22.01;100.00;102802.47;5227410;28;20107;-72
2022/10/18 09:53:50;;;;;;;24.58;6.03;;;;;;;22.44;100.00;102814.25;5227269;28;20394;-72
2022/10/18 09:56:26;;;;;;;23.90;5.75;;;;;;;22.62;100.00;102815.63;5227324;28;20021;-72
2022/10/18 09:58:57;;;;;;;23.08;7.25;;;;;;;22.71;100.00;102812.56;5226568;28;20023;-72
2022/10/18 10:01:30;;;;;;;27.38;6.10;;;;;;;22.57;100.00;102798.97;5226764;28;20028;-72
2022/10/18 10:04:01;;;;;;;21.30;6.22;;;;;;;22.39;100.00;102808.53;5227063;28;20023;-72
2022/10/18 10:06:33;;;;;;;25.02;7.15;;;;;;;21.95;100.00;102812.28;5226846;28;20104;-72
2022/10/18 10:09:14;;;;;;;28.10;7.07;;;;;;;21.68;100.00;102807.56;5226482;28;20585;-72
2022/10/18 10:11:47;;;;;;;25.20;7.40;;;;;;;21.49;100.00;102800.84;5214412;28;20032;-70
2022/10/18 10:14:25;;;;;;;30.45;7.10;;;;;;;21.33;100.00;102804.59;5226752;28;20043;-72
2022/10/18 10:17:02;;;;;;;23.55;7.07;;;;;;;21.15;100.00;102796.81;5226115;28;20051;-72
2022/10/18 10:19:38;;;;;;;17.58;6.72;;;;;;;20.92;100.00;102801.50;5227094;28;20016;-74
2022/10/18 10:22:12;;;;;;;21.02;6.63;;;;;;;20.69;100.00;102796.97;5226696;28;20082;-74
2022/10/18 10:24:52;;;;;;;26.10;6.50;;;;;;;;;;5226932;28;20443;-74
2022/10/18 10:27:49;;;;;;;18.38;6.88;;;;;;;20.65;100.00;102790.19;5226078;28;20107;-74
2022/10/18 10:30:27;;;;;;;19.42;4.68;;;;;;;20.60;100.00;102806.28;5225253;28;20041;-75
2022/10/18 10:32:57;;;;;;;20.98;4.40;;;;;;;20.76;100.00;102801.69;5224666;28;20040;-74
2022/10/18 10:35:31;;;;;;;23.85;4.55;;;;;;;20.51;100.00;102796.47;5226313;28;20054;-74
2022/10/18 10:38:03;;;;;;;21.25;4.22;;;;;;;20.30;100.00;102799.88;5225931;28;20021;-74
2022/10/18 10:40:44;;;;;;;19.40;3.70;;;;;;;20.12;100.00;102802.91;5226000;28;20090;-73
2022/10/18 10:43:23;;;;;;;22.05;5.05;;;;;;;20.11;100.00;102797.63;5225569;28;20025;-73
2022/10/18 10:45:59;;;;;;;15.93;4.28;;;;;;;20.15;100.00;102802.53;5226165;28;20029;-74
2022/10/18 10:48:40;;;;;;;17.15;4.32;;;;;;;20.30;100.00;102808.03;5225205;28;20032;-74
2022/10/18 10:51:12;;;;;;;27.80;4.07;;;;;;;20.40;100.00;102807.78;5226379;28;20024;-74
2022/10/18 10:54:04;;;;;;;25.48;5.15;;;;;;;20.55;100.00;102818.78;5225383;28;20037;-74
2022/10/18 10:56:55;;;;;;;19.90;4.75;;;;;;;20.82;100.00;102815.41;5224824;28;20017;-74
2022/10/18 10:59:36;;;;;;;17.85;4.75;;;;;;;20.69;100.00;102809.78;5226134;28;20033;-74
2022/10/18 11:02:13;;;;;;;15.25;4.50;;;;;;;20.81;100.00;102816.44;5212873;28;20025;-74
2022/10/18 11:04:45;;;;;;;19.08;4.85;;;;;;;20.76;100.00;102818.03;5225530;28;20036;-73
2022/10/18 11:07:30;;;;;;;17.83;3.75;;;;;;;20.64;100.00;102821.25;5225230;28;20021;-74
2022/10/18 11:10:09;;;;;;;17.25;4.32;;;;;;;20.61;100.00;102807.13;5225384;28;20103;-74
2022/10/18 11:12:45;;;;;;;13.00;3.17;;;;;;;20.75;100.00;102809.03;5225550;28;20028;-74
2022/10/18 11:15:34;;;;;;;21.00;3.72;;;;;;;20.85;100.00;102812.31;5224369;28;20142;-74
2022/10/18 11:18:29;;;;;;;17.30;3.60;;;;;;;20.97;100.00;102814.59;5224758;28;20104;-73
2022/10/18 11:21:07;;;;;;;13.32;2.75;;;;;;;21.02;100.00;102804.78;5225353;28;20100;-74
2022/10/18 11:23:40;;;;;;;13.32;3.10;;;;;;;21.01;100.00;102808.56;5225671;28;20017;-74
2022/10/18 11:26:11;;;;;;;17.73;2.95;;;;;;;20.87;100.00;102812.97;5225574;28;20025;-73
2022/10/18 11:28:56;;;;;;;14.48;2.40;;;;;;;21.04;100.00;102807.34;5224630;28;20036;-73
2022/10/18 11:31:49;;;;;;;15.00;3.08;;;;;;;21.18;100.00;102803.75;5224826;28;20021;-75
2022/10/18 11:34:22;;;;;;;13.05;2.80;;;;;;;21.09;100.00;102800.28;5224157;28;20060;-75
2022/10/18 11:37:21;;;;;;;15.48;2.80;;;;;;;21.08;100.00;102790.38;5224645;28;20028;-73
2022/10/18 11:40:09;;;;;;;11.90;2.67;;;;;;;20.99;100.00;102787.97;5225252;28;20395;-74